Time;durP1;ratioP1;P1;durP2;ratioP2;P2;SDS_P1;SDS_P2;PMS_P1;PMS_P2;Temp;Humidity;BMP_temperature;BMP_pressure;BME280_temperature;BME280_humidity;BME280_pressure;Samples;Min_cycle;Max_cycle;Signal;HPM_P1;HPM_P2
2023/05/31 00:01:28;;;;;;;5.88;4.38;;;15.50;99.90;;;;;;4159217;28;20068;-78
2023/05/31 00:03:29;;;;;;;6.40;4.03;;;15.40;99.90;;;;;;4161093;28;20128;-77
2023/05/31 00:05:29;;;;;;;4.40;3.70;;;15.40;99.90;;;;;;4161501;28;20460;-77
2023/05/31 00:07:30;;;;;;;7.78;4.28;;;15.30;99.90;;;;;;4162484;28;20037;-77
2023/05/31 00:09:30;;;;;;;5.75;3.92;;;15.30;99.90;;;;;;4158326;28;20507;-76
2023/05/31 00:11:31;;;;;;;5.60;4.35;;;15.30;99.90;;;;;;4161703;28;20492;-77
2023/05/31 00:13:31;;;;;;;6.57;4.60;;;15.30;99.90;;;;;;4162286;28;20087;-77
2023/05/31 00:15:32;;;;;;;5.97;4.47;;;15.00;99.90;;;;;;4157566;28;20168;-74
2023/05/31 00:17:33;;;;;;;7.18;4.70;;;15.10;99.90;;;;;;4161746;28;20040;-75
2023/05/31 00:19:33;;;;;;;4.70;3.97;;;15.00;99.90;;;;;;4161223;28;20038;-75
2023/05/31 00:21:35;;;;;;;4.75;4.22;;;15.00;99.90;;;;;;4155428;28;20076;-77
2023/05/31 00:23:35;;;;;;;5.00;4.30;;;15.10;99.90;;;;;;4160507;28;20120;-76
2023/05/31 00:25:36;;;;;;;4.22;3.78;;;15.10;99.90;;;;;;4157942;28;20156;-77
2023/05/31 00:27:36;;;;;;;5.70;4.10;;;15.10;99.90;;;;;;4159345;28;21070;-77
2023/05/31 00:29:37;;;;;;;6.13;4.35;;;15.00;99.90;;;;;;4161782;28;20037;-68
2023/05/31 00:31:38;;;;;;;4.50;3.75;;;15.10;99.90;;;;;;4157091;28;20099;-74
2023/05/31 00:33:38;;;;;;;5.28;4.20;;;15.10;99.90;;;;;;4162196;28;20029;-77
2023/05/31 00:35:39;;;;;;;5.55;4.10;;;15.10;99.90;;;;;;4157526;28;20296;-77
2023/05/31 00:37:39;;;;;;;6.68;4.00;;;15.10;99.90;;;;;;4160359;28;20120;-76
2023/05/31 00:39:40;;;;;;;4.47;3.78;;;15.20;99.90;;;;;;4157458;28;20060;-77
2023/05/31 00:41:40;;;;;;;5.97;3.92;;;15.10;99.90;;;;;;4159634;28;20033;-77
2023/05/31 00:43:41;;;;;;;4.57;4.05;;;15.20;99.90;;;;;;4161994;28;20041;-77
2023/05/31 00:45:41;;;;;;;6.95;4.68;;;15.20;99.90;;;;;;4158749;28;20063;-77
2023/05/31 00:47:42;;;;;;;5.05;3.60;;;15.20;99.90;;;;;;4160513;28;20400;-78
2023/05/31 00:49:43;;;;;;;5.60;4.13;;;15.20;99.90;;;;;;4160340;28;20029;-77
2023/05/31 00:51:44;;;;;;;4.82;4.00;;;15.20;99.90;;;;;;4160710;28;20041;-75
2023/05/31 00:53:45;;;;;;;5.32;4.50;;;15.20;99.90;;;;;;4160335;28;20036;-77
2023/05/31 00:55:46;;;;;;;4.88;4.18;;;15.20;99.90;;;;;;4157866;28;20036;-77
2023/05/31 00:57:47;;;;;;;5.28;4.30;;;15.20;99.90;;;;;;4161743;28;20480;-77
2023/05/31 00:59:47;;;;;;;4.80;3.78;;;15.30;99.90;;;;;;4160421;28;20060;-76
2023/05/31 01:01:50;;;;;;;4.93;3.85;;;15.30;99.90;;;;;;4158337;28;20168;-77
2023/05/31 01:03:50;;;;;;;5.47;4.10;;;15.30;99.90;;;;;;4158374;28;20099;-77
2023/05/31 01:05:51;;;;;;;5.38;4.30;;;15.30;99.90;;;;;;4154474;28;20029;-77
2023/05/31 01:07:52;;;;;;;4.88;4.03;;;15.30;99.90;;;;;;4157671;28;20463;-77
2023/05/31 01:09:53;;;;;;;5.60;4.22;;;15.30;99.90;;;;;;4155569;28;20036;-77
2023/05/31 01:12:37;;;;;;;4.47;3.78;;;15.30;99.90;;;;;;4154846;28;20068;-77
2023/05/31 01:15:08;;;;;;;5.60;4.15;;;15.30;99.90;;;;;;4168023;28;20041;-76
2023/05/31 01:17:36;;;;;;;6.70;3.95;;;15.30;99.90;;;;;;4162570;28;20063;-75
2023/05/31 01:19:47;;;;;;;4.63;3.85;;;15.30;99.90;;;;;;4153900;28;20034;-77
2023/05/31 01:22:18;;;;;;;7.53;4.45;;;15.30;99.90;;;;;;4152949;28;20113;-75
2023/05/31 01:24:26;;;;;;;4.40;3.67;;;15.30;99.90;;;;;;4157176;28;20033;-77
2023/05/31 01:26:37;;;;;;;4.95;4.32;;;15.30;99.90;;;;;;4157842;28;20134;-77
2023/05/31 01:28:41;;;;;;;5.95;4.30;;;15.40;99.90;;;;;;4156296;28;20029;-68
2023/05/31 01:30:45;;;;;;;5.47;4.55;;;15.30;99.90;;;;;;4154494;28;20805;-76
2023/05/31 01:32:46;;;;;;;4.93;4.05;;;15.20;99.90;;;;;;4161275;28;20036;-77
2023/05/31 01:34:46;;;;;;;4.82;4.22;;;15.20;99.90;;;;;;4158266;28;20116;-77
2023/05/31 01:36:47;;;;;;;5.22;4.28;;;15.20;99.90;;;;;;4159299;28;20052;-75
2023/05/31 01:38:47;;;;;;;7.13;4.70;;;15.10;99.90;;;;;;4156931;28;20037;-77
2023/05/31 01:40:49;;;;;;;4.32;3.58;;;15.00;99.90;;;;;;4155422;28;20033;-77
2023/05/31 01:42:50;;;;;;;5.07;4.05;;;15.10;99.90;;;;;;4158964;28;20049;-75
2023/05/31 01:44:52;;;;;;;4.65;4.13;;;15.10;99.90;;;;;;4154700;28;20065;-76
2023/05/31 01:46:53;;;;;;;5.88;4.32;;;15.10;99.90;;;;;;4155070;28;20030;-76
2023/05/31 01:48:54;;;;;;;7.22;4.50;;;15.00;99.90;;;;;;4160324;28;20039;-77
2023/05/31 01:50:57;;;;;;;6.97;4.43;;;14.90;99.90;;;;;;4155305;28;20046;-76
2023/05/31 01:52:58;;;;;;;4.80;4.22;;;14.90;99.90;;;;;;4159195;28;22838;-77
2023/05/31 01:54:59;;;;;;;5.97;4.43;;;14.80;99.90;;;;;;4153112;28;20421;-77
2023/05/31 01:57:03;;;;;;;5.57;4.30;;;14.80;99.90;;;;;;4158887;28;20425;-75
2023/05/31 01:59:06;;;;;;;4.68;3.92;;;14.80;99.90;;;;;;4157695;28;20033;-76
2023/05/31 02:01:08;;;;;;;7.25;5.05;;;14.80;99.90;;;;;;4155135;28;20030;-75
2023/05/31 02:03:09;;;;;;;4.55;3.95;;;14.70;99.90;;;;;;4156448;28;20037;-67
2023/05/31 02:05:12;;;;;;;5.25;4.57;;;14.70;99.90;;;;;;4155270;28;20037;-76
2023/05/31 02:07:13;;;;;;;5.40;4.38;;;14.70;99.90;;;;;;4152640;28;20037;-77
2023/05/31 02:09:14;;;;;;;7.15;4.65;;;14.70;99.90;;;;;;4156433;28;20025;-77
2023/05/31 02:11:14;;;;;;;6.72;4.57;;;14.50;99.90;;;;;;4156451;28;20063;-77
2023/05/31 02:13:15;;;;;;;4.88;4.00;;;14.50;99.90;;;;;;4158813;28;20037;-76
2023/05/31 02:15:19;;;;;;;4.53;4.05;;;14.50;99.90;;;;;;4154361;28;20500;-77
2023/05/31 02:17:23;;;;;;;5.80;4.55;;;14.50;99.90;;;;;;4157983;28;20052;-77
2023/05/31 02:19:25;;;;;;;6.55;4.72;;;14.50;99.90;;;;;;4158914;28;20038;-76
2023/05/31 02:21:26;;;;;;;4.68;4.05;;;14.50;99.90;;;;;;4156376;28;20416;-77
2023/05/31 02:23:26;;;;;;;6.57;4.85;;;14.50;99.90;;;;;;4155371;28;20033;-76
2023/05/31 02:25:27;;;;;;;7.18;4.85;;;14.50;99.90;;;;;;4156127;28;20029;-76
2023/05/31 02:27:29;;;;;;;6.28;4.72;;;14.50;99.90;;;;;;4159572;28;20029;-78
2023/05/31 02:29:29;;;;;;;5.70;4.60;;;14.40;99.90;;;;;;4155131;28;20064;-77
2023/05/31 02:31:30;;;;;;;5.97;4.28;;;14.50;99.90;;;;;;4155723;28;20392;-76
2023/05/31 02:33:30;;;;;;;6.45;4.85;;;14.40;99.90;;;;;;4156407;28;20057;-77
2023/05/31 02:35:31;;;;;;;5.95;4.40;;;14.40;99.90;;;;;;4158328;28;20048;-77
2023/05/31 02:37:32;;;;;;;6.82;4.55;;;14.30;99.90;;;;;;4157061;28;20055;-76
2023/05/31 02:39:33;;;;;;;6.15;4.25;;;14.20;99.90;;;;;;4156725;28;20052;-77
2023/05/31 02:41:33;;;;;;;6.13;5.03;;;14.20;99.90;;;;;;4154549;28;20029;-77
2023/05/31 02:43:34;;;;;;;5.50;4.55;;;14.20;99.90;;;;;;4153391;28;20061;-77
2023/05/31 02:45:35;;;;;;;6.78;5.10;;;14.10;99.90;;;;;;4153499;28;20061;-77
2023/05/31 02:47:37;;;;;;;7.22;5.55;;;14.00;99.90;;;;;;4153506;28;20049;-77
2023/05/31 02:49:38;;;;;;;6.25;4.53;;;14.00;99.90;;;;;;4159732;28;20029;-76
2023/05/31 02:51:38;;;;;;;6.47;4.95;;;14.00;99.90;;;;;;4157013;28;20133;-77
2023/05/31 02:53:39;;;;;;;5.65;4.22;;;14.10;99.90;;;;;;4158506;28;20043;-76
2023/05/31 02:55:40;;;;;;;6.18;4.55;;;14.00;99.90;;;;;;4152502;28;20096;-73
2023/05/31 02:57:41;;;;;;;7.80;5.35;;;14.10;99.90;;;;;;4155464;28;20037;-76
2023/05/31 02:59:44;;;;;;;7.40;5.40;;;14.00;99.90;;;;;;4158065;28;20141;-76
2023/05/31 03:01:45;;;;;;;8.70;5.53;;;13.90;99.90;;;;;;4157477;28;20037;-75
2023/05/31 03:03:45;;;;;;;6.38;4.57;;;13.90;99.90;;;;;;4158142;28;20040;-76
2023/05/31 03:05:46;;;;;;;5.40;4.45;;;14.00;99.90;;;;;;4155937;28;20033;-75
2023/05/31 03:07:46;;;;;;;6.13;4.40;;;13.90;99.90;;;;;;4159027;28;20451;-76
2023/05/31 03:09:47;;;;;;;7.88;5.20;;;14.00;99.90;;;;;;4159131;28;20037;-75
2023/05/31 03:11:48;;;;;;;5.75;4.47;;;14.00;99.90;;;;;;4148862;28;20558;-74
2023/05/31 03:13:48;;;;;;;7.13;5.03;;;14.00;99.90;;;;;;4158258;28;20485;-76
2023/05/31 03:15:49;;;;;;;6.32;4.78;;;14.00;99.90;;;;;;4158644;28;22789;-75
2023/05/31 03:17:50;;;;;;;7.28;4.95;;;14.00;99.90;;;;;;4160132;28;20504;-77
2023/05/31 03:19:50;;;;;;;7.07;4.85;;;14.00;99.90;;;;;;4158413;28;20029;-77
2023/05/31 03:21:51;;;;;;;6.43;5.10;;;14.10;99.90;;;;;;4156419;28;20112;-76
2023/05/31 03:23:52;;;;;;;7.30;4.95;;;14.00;99.90;;;;;;4157625;28;20030;-76
2023/05/31 03:25:52;;;;;;;5.93;4.78;;;14.10;99.90;;;;;;4156809;28;20052;-75
2023/05/31 03:27:53;;;;;;;7.13;5.28;;;14.00;99.90;;;;;;4159888;28;20567;-74
2023/05/31 03:29:53;;;;;;;6.13;5.00;;;14.10;99.90;;;;;;4156890;28;20033;-76
2023/05/31 03:31:54;;;;;;;6.10;4.88;;;14.10;99.90;;;;;;4158963;28;20507;-76
2023/05/31 03:33:55;;;;;;;7.78;5.25;;;14.10;99.90;;;;;;4160714;28;20492;-75
2023/05/31 03:35:56;;;;;;;6.15;4.93;;;14.10;99.90;;;;;;4156271;28;20030;-75
2023/05/31 03:37:56;;;;;;;7.85;5.45;;;14.10;99.90;;;;;;4162696;28;20045;-76
2023/05/31 03:39:57;;;;;;;7.40;5.07;;;14.20;99.90;;;;;;4162928;28;20036;-75
2023/05/31 03:41:59;;;;;;;7.55;5.53;;;14.20;99.90;;;;;;4161994;28;20096;-76
2023/05/31 03:43:59;;;;;;;5.97;4.97;;;14.20;99.90;;;;;;4163182;28;20041;-77
2023/05/31 03:46:00;;;;;;;8.30;5.40;;;14.20;99.90;;;;;;4161257;28;20358;-76
2023/05/31 03:48:01;;;;;;;8.02;5.65;;;14.30;99.90;;;;;;4161762;28;20033;-73
2023/05/31 03:50:04;;;;;;;7.97;5.75;;;14.30;99.90;;;;;;4163098;28;20037;-77
2023/05/31 03:52:05;;;;;;;7.80;5.45;;;14.30;99.90;;;;;;4161163;28;20026;-77
2023/05/31 03:54:06;;;;;;;7.15;5.65;;;14.40;99.90;;;;;;4162180;28;20044;-77
2023/05/31 03:56:06;;;;;;;10.18;5.95;;;14.40;99.90;;;;;;4161348;28;20036;-76
2023/05/31 03:58:07;;;;;;;7.20;5.15;;;14.40;99.90;;;;;;4162640;28;20037;-77
2023/05/31 04:00:11;;;;;;;7.53;5.32;;;14.40;99.90;;;;;;4161721;28;20044;-75
2023/05/31 04:02:11;;;;;;;7.45;5.75;;;14.40;99.90;;;;;;4158684;28;20033;-76
2023/05/31 04:04:12;;;;;;;8.30;6.05;;;14.40;99.90;;;;;;4161914;28;20459;-77
2023/05/31 04:06:12;;;;;;;9.00;6.68;;;14.40;99.90;;;;;;4159836;28;20041;-77
2023/05/31 04:08:13;;;;;;;7.55;6.05;;;14.30;99.90;;;;;;4161680;28;20038;-76
2023/05/31 04:10:13;;;;;;;7.97;6.30;;;14.40;99.90;;;;;;4161374;28;20037;-76
2023/05/31 04:12:14;;;;;;;8.48;6.45;;;14.20;99.90;;;;;;4162574;28;20148;-76
2023/05/31 04:14:15;;;;;;;9.90;6.72;;;14.20;99.90;;;;;;4162186;28;20032;-76
2023/05/31 04:16:15;;;;;;;8.85;6.50;;;14.20;99.90;;;;;;4161374;28;20116;-76
2023/05/31 04:18:16;;;;;;;11.18;7.18;;;14.20;99.90;;;;;;4160808;28;20042;-76
2023/05/31 04:20:18;;;;;;;7.82;6.47;;;14.00;99.90;;;;;;4161648;28;20435;-76
2023/05/31 04:22:20;;;;;;;10.88;6.90;;;14.00;99.90;;;;;;4161820;28;20480;-76
2023/05/31 04:24:20;;;;;;;10.37;6.50;;;14.00;99.90;;;;;;4160987;28;20109;-76
2023/05/31 04:26:21;;;;;;;8.75;5.85;;;14.10;99.90;;;;;;4156873;28;20500;-76
2023/05/31 04:28:22;;;;;;;11.77;6.03;;;14.10;99.90;;;;;;4162396;28;20643;-76
2023/05/31 04:30:23;;;;;;;9.68;6.35;;;14.10;99.90;;;;;;4160461;28;20116;-76
2023/05/31 04:32:24;;;;;;;7.50;6.03;;;14.20;99.90;;;;;;4162101;28;20508;-76
2023/05/31 04:34:26;;;;;;;7.28;5.90;;;14.20;99.90;;;;;;4160372;28;20044;-76
2023/05/31 04:36:26;;;;;;;7.55;6.00;;;14.20;99.90;;;;;;4160906;28;20050;-76
2023/05/31 04:38:27;;;;;;;7.57;5.50;;;14.30;99.90;;;;;;4162399;28;20103;-76
2023/05/31 04:40:32;;;;;;;8.23;5.85;;;14.40;99.90;;;;;;4176188;28;20036;-75
2023/05/31 04:42:33;;;;;;;9.00;6.25;;;14.40;99.90;;;;;;4157049;28;20033;-75
2023/05/31 04:44:34;;;;;;;9.02;6.00;;;14.50;99.90;;;;;;4160328;28;20048;-76
2023/05/31 04:46:36;;;;;;;9.50;6.65;;;14.50;99.90;;;;;;4160647;28;20043;-76
2023/05/31 04:48:36;;;;;;;10.93;7.57;;;14.60;99.90;;;;;;4160777;28;20033;-76
2023/05/31 04:50:37;;;;;;;9.18;6.70;;;14.50;99.90;;;;;;4161029;28;20032;-76
2023/05/31 04:52:40;;;;;;;8.23;6.55;;;14.60;99.90;;;;;;4161865;28;20045;-76
2023/05/31 04:54:40;;;;;;;8.77;6.32;;;14.60;99.90;;;;;;4161776;28;20037;-76
2023/05/31 04:56:41;;;;;;;9.52;6.65;;;14.60;99.90;;;;;;4175212;28;20485;-67
2023/05/31 04:58:42;;;;;;;10.13;7.57;;;14.60;99.90;;;;;;4161728;28;20033;-75
2023/05/31 05:00:42;;;;;;;11.80;7.55;;;14.50;99.90;;;;;;4158838;28;20045;-75
2023/05/31 05:02:43;;;;;;;10.23;6.85;;;14.50;99.90;;;;;;4161559;28;20030;-74
2023/05/31 05:04:44;;;;;;;14.88;8.00;;;14.60;99.90;;;;;;4159182;28;20029;-75
2023/05/31 05:06:44;;;;;;;10.27;7.68;;;14.50;99.90;;;;;;4160745;28;20032;-76
2023/05/31 05:08:45;;;;;;;8.88;6.25;;;14.50;99.90;;;;;;4161097;28;20029;-75
2023/05/31 05:10:47;;;;;;;12.57;7.47;;;14.50;99.90;;;;;;4160382;28;20147;-76
2023/05/31 05:12:47;;;;;;;11.98;7.97;;;14.50;99.90;;;;;;4159593;28;20029;-76
2023/05/31 05:14:48;;;;;;;10.65;7.22;;;14.50;99.90;;;;;;4159568;28;20036;-76
2023/05/31 05:16:48;;;;;;;12.38;7.85;;;14.60;99.90;;;;;;4158185;28;20037;-76
2023/05/31 05:18:49;;;;;;;11.30;7.38;;;14.50;99.90;;;;;;4158293;28;20034;-76
2023/05/31 05:20:49;;;;;;;9.88;6.57;;;14.50;99.90;;;;;;4155839;28;20465;-75
2023/05/31 05:22:54;;;;;;;11.55;7.68;;;14.60;99.90;;;;;;4155276;28;20038;-75
2023/05/31 05:24:54;;;;;;;13.23;7.95;;;14.60;99.90;;;;;;4157761;28;20127;-76
2023/05/31 05:26:55;;;;;;;10.43;6.88;;;14.70;99.90;;;;;;4158135;28;20034;-74
2023/05/31 05:28:56;;;;;;;13.32;8.55;;;14.70;99.90;;;;;;4160040;28;20029;-74
2023/05/31 05:30:56;;;;;;;9.48;7.25;;;14.80;99.90;;;;;;4158280;28;20045;-75
2023/05/31 05:32:57;;;;;;;10.65;7.00;;;14.80;99.90;;;;;;4159128;28;20473;-72
2023/05/31 05:34:57;;;;;;;12.75;7.30;;;14.90;99.90;;;;;;4158109;28;20037;-74
2023/05/31 05:36:58;;;;;;;12.18;7.70;;;14.90;99.90;;;;;;4158578;28;20052;-75
2023/05/31 05:39:05;;;;;;;11.68;7.38;;;15.00;99.90;;;;;;4155049;28;20033;-75
2023/05/31 05:41:10;;;;;;;12.05;7.45;;;15.00;99.90;;;;;;4157376;28;20034;-72
2023/05/31 05:43:13;;;;;;;13.38;8.23;;;15.00;99.90;;;;;;4158709;28;20100;-73
2023/05/31 05:45:14;;;;;;;11.38;7.38;;;15.10;99.90;;;;;;4122846;28;20493;-75
2023/05/31 05:47:14;;;;;;;13.18;7.95;;;15.20;99.90;;;;;;4156321;28;20053;-75
2023/05/31 05:49:15;;;;;;;13.65;7.72;;;15.20;99.90;;;;;;4153989;28;20481;-70
2023/05/31 05:51:16;;;;;;;10.77;7.28;;;15.40;99.90;;;;;;4158096;28;20033;-72
2023/05/31 05:53:17;;;;;;;9.18;7.22;;;15.60;99.90;;;;;;4160347;28;20038;-71
2023/05/31 05:55:19;;;;;;;14.15;7.75;;;15.90;99.90;;;;;;4159431;28;20431;-72
2023/05/31 05:57:20;;;;;;;15.30;8.93;;;16.30;99.90;;;;;;4155462;28;20081;-72
2023/05/31 05:59:21;;;;;;;9.90;7.00;;;16.70;99.90;;;;;;4157942;28;20448;-72
2023/05/31 06:01:23;;;;;;;11.82;6.90;;;17.00;99.90;;;;;;4155939;28;20033;-72
2023/05/31 06:03:24;;;;;;;;;;;17.40;99.90;;;;;;4159506;28;20551;-73
2023/05/31 06:05:26;;;;;;;9.13;6.45;;;17.80;99.90;;;;;;4156231;28;19916;-72
2023/05/31 06:07:27;;;;;;;8.00;5.68;;;17.90;99.90;;;;;;4156770;28;20065;-73
2023/05/31 06:09:27;;;;;;;7.05;5.10;;;18.30;99.90;;;;;;4157429;28;20045;-73
2023/05/31 06:11:28;;;;;;;12.50;6.00;;;18.70;99.90;;;;;;4158751;28;20108;-73
2023/05/31 06:13:28;;;;;;;8.75;5.45;;;19.10;99.90;;;;;;4159244;28;20037;-73
2023/05/31 06:15:29;;;;;;;7.22;5.43;;;19.50;99.90;;;;;;4156310;28;20037;-72
2023/05/31 06:17:30;;;;;;;10.63;6.13;;;19.70;99.90;;;;;;4155341;28;20413;-72
2023/05/31 06:19:30;;;;;;;9.55;5.47;;;19.80;99.90;;;;;;4157530;28;20045;-73
2023/05/31 06:21:31;;;;;;;10.38;5.30;;;20.20;99.90;;;;;;4157662;28;20044;-72
2023/05/31 06:23:32;;;;;;;9.75;5.55;;;20.50;99.90;;;;;;4156358;28;21696;-73
2023/05/31 06:25:35;;;;;;;9.88;5.43;;;20.80;99.90;;;;;;4158377;28;20489;-73
2023/05/31 06:27:35;;;;;;;11.10;5.50;;;20.80;99.90;;;;;;4160316;28;20083;-73
2023/05/31 06:29:36;;;;;;;10.32;5.70;;;20.80;99.90;;;;;;4158893;28;20045;-73
2023/05/31 06:31:38;;;;;;;7.32;4.50;;;20.40;99.90;;;;;;4151716;28;20105;-72
2023/05/31 06:33:39;;;;;;;7.47;4.53;;;20.60;99.90;;;;;;4156807;28;20392;-72
2023/05/31 06:35:42;;;;;;;9.38;4.63;;;20.80;99.90;;;;;;4156974;28;20064;-72
2023/05/31 06:37:44;;;;;;;9.07;4.93;;;21.00;99.90;;;;;;4154532;28;20107;-71
2023/05/31 06:39:44;;;;;;;7.03;4.43;;;21.10;99.90;;;;;;4154635;28;20048;-73
2023/05/31 06:41:45;;;;;;;7.55;4.25;;;21.10;99.90;;;;;;4150781;28;20284;-72
2023/05/31 06:43:46;;;;;;;6.40;3.75;;;21.20;99.90;;;;;;4158541;28;20030;-72
2023/05/31 06:45:48;;;;;;;7.72;4.28;;;21.30;99.90;;;;;;4154125;28;20073;-72
2023/05/31 06:47:48;;;;;;;9.25;4.35;;;21.40;99.90;;;;;;4158806;28;20025;-72
2023/05/31 06:49:49;;;;;;;6.45;4.65;;;21.30;99.90;;;;;;4158935;28;20037;-73
2023/05/31 06:51:50;;;;;;;6.97;4.10;;;21.40;99.90;;;;;;4159432;28;20419;-72
2023/05/31 06:53:51;;;;;;;9.73;4.25;;;21.60;99.90;;;;;;4159429;28;20041;-73
2023/05/31 06:55:51;;;;;;;6.63;4.00;;;21.70;99.90;;;;;;4159248;28;20033;-72
2023/05/31 06:57:52;;;;;;;7.10;4.82;;;21.70;99.90;;;;;;4155590;28;20208;-72
2023/05/31 06:59:52;;;;;;;8.23;4.50;;;21.70;99.90;;;;;;4156352;28;20453;-73
2023/05/31 07:01:54;;;;;;;10.88;4.80;;;21.70;99.90;;;;;;4159324;28;20102;-72
2023/05/31 07:03:54;;;;;;;9.45;4.63;;;21.70;99.90;;;;;;4158285;28;20478;-73
2023/05/31 07:05:55;;;;;;;9.70;5.45;;;21.70;99.90;;;;;;4158735;28;20072;-72
2023/05/31 07:07:55;;;;;;;9.05;4.53;;;21.40;99.90;;;;;;4159714;28;20095;-72
2023/05/31 07:09:56;;;;;;;7.85;4.60;;;21.40;99.90;;;;;;4161574;28;20064;-72
2023/05/31 07:11:56;;;;;;;8.95;5.07;;;21.40;99.90;;;;;;4159241;28;20029;-72
2023/05/31 07:14:01;;;;;;;6.85;3.63;;;21.30;99.90;;;;;;4162231;28;20124;-72
2023/05/31 07:16:02;;;;;;;7.40;4.10;;;21.60;99.90;;;;;;4157933;28;20064;-72
2023/05/31 07:18:03;;;;;;;6.47;3.97;;;21.70;99.90;;;;;;4158080;28;20052;-72
2023/05/31 07:20:05;;;;;;;6.80;3.88;;;21.80;99.90;;;;;;4160466;28;20385;-73
2023/05/31 07:22:06;;;;;;;10.45;4.15;;;21.90;99.90;;;;;;4156384;28;20040;-72
2023/05/31 07:24:06;;;;;;;7.72;4.53;;;22.10;99.90;;;;;;4160425;28;20037;-72
2023/05/31 07:26:07;;;;;;;10.30;5.88;;;22.00;99.90;;;;;;4159741;28;20112;-72
2023/05/31 07:28:07;;;;;;;9.48;4.38;;;21.70;99.90;;;;;;4163191;28;20034;-72
2023/05/31 07:30:08;;;;;;;8.93;5.18;;;21.90;99.90;;;;;;4158849;28;20032;-71
2023/05/31 07:32:09;;;;;;;7.97;4.55;;;21.90;99.90;;;;;;4159751;28;20061;-71
2023/05/31 07:34:10;;;;;;;7.55;3.85;;;21.80;99.90;;;;;;4162018;28;20088;-72
2023/05/31 07:36:11;;;;;;;6.80;4.40;;;21.90;99.90;;;;;;4160223;28;20536;-72
2023/05/31 07:38:11;;;;;;;8.77;4.35;;;21.80;99.90;;;;;;4160334;28;20037;-71
2023/05/31 07:40:15;;;;;;;8.13;3.88;;;21.80;99.90;;;;;;4160169;28;20393;-72
2023/05/31 07:42:15;;;;;;;9.10;4.40;;;21.90;99.90;;;;;;4158224;28;20412;-72
2023/05/31 07:44:18;;;;;;;12.02;4.97;;;21.80;99.90;;;;;;4160148;28;20046;-71
2023/05/31 07:46:18;;;;;;;6.22;4.10;;;21.70;99.80;;;;;;4157283;28;20057;-71
2023/05/31 07:48:19;;;;;;;6.55;4.28;;;21.80;99.90;;;;;;4160626;28;20108;-71
2023/05/31 07:50:20;;;;;;;8.82;3.80;;;21.70;99.90;;;;;;4158749;28;20124;-71
2023/05/31 07:52:21;;;;;;;6.85;3.95;;;21.90;99.90;;;;;;4162627;28;20040;-71
2023/05/31 07:54:22;;;;;;;6.97;4.00;;;22.20;99.90;;;;;;4160573;28;20120;-71
2023/05/31 07:56:22;;;;;;;8.15;3.90;;;22.20;99.90;;;;;;4158969;28;20435;-71
2023/05/31 07:58:23;;;;;;;7.97;4.18;;;22.00;99.60;;;;;;4154345;28;20041;-71
2023/05/31 08:00:24;;;;;;;6.35;3.35;;;22.00;99.50;;;;;;4159257;28;20049;-71
2023/05/31 08:02:25;;;;;;;6.97;3.47;;;22.20;99.90;;;;;;4156389;28;20095;-70
2023/05/31 08:04:26;;;;;;;8.52;3.90;;;22.30;99.90;;;;;;4156576;28;20033;-72
2023/05/31 08:06:26;;;;;;;6.03;3.35;;;22.30;99.90;;;;;;4153583;28;20060;-71
2023/05/31 08:08:27;;;;;;;8.82;4.18;;;22.50;99.90;;;;;;4156227;28;20040;-71
2023/05/31 08:10:29;;;;;;;8.38;4.28;;;22.50;99.30;;;;;;4148898;28;20068;-72
2023/05/31 08:12:30;;;;;;;9.27;3.88;;;22.40;99.00;;;;;;4152699;28;20112;-72
2023/05/31 08:14:31;;;;;;;6.47;3.40;;;22.40;99.20;;;;;;4156362;28;20041;-71
2023/05/31 08:16:32;;;;;;;6.35;3.30;;;22.50;99.00;;;;;;4155877;28;20070;-71
2023/05/31 08:18:33;;;;;;;12.05;4.65;;;22.50;99.90;;;;;;4158945;28;20488;-72
2023/05/31 08:20:34;;;;;;;13.27;4.63;;;22.40;99.10;;;;;;4158541;28;20109;-71
2023/05/31 08:22:35;;;;;;;9.32;4.07;;;22.40;98.10;;;;;;4159073;28;20489;-71
2023/05/31 08:24:36;;;;;;;7.55;3.97;;;22.40;99.80;;;;;;4160444;28;20219;-71
2023/05/31 08:26:36;;;;;;;7.03;3.67;;;22.50;99.90;;;;;;4160048;28;20076;-72
2023/05/31 08:28:37;;;;;;;6.07;3.58;;;22.70;99.90;;;;;;4159551;28;20079;-71
2023/05/31 08:30:37;;;;;;;7.32;3.63;;;22.70;99.90;;;;;;4158749;28;20038;-71
2023/05/31 08:32:40;;;;;;;6.25;3.17;;;23.00;99.90;;;;;;4159453;28;20099;-71
2023/05/31 08:34:43;;;;;;;9.90;3.63;;;23.10;99.60;;;;;;4157905;28;20511;-71
2023/05/31 08:36:44;;;;;;;7.30;3.63;;;23.30;99.90;;;;;;4160829;28;20049;-71
2023/05/31 08:38:45;;;;;;;5.22;3.35;;;23.50;99.60;;;;;;4159085;28;21009;-71
2023/05/31 08:40:46;;;;;;;5.90;3.10;;;23.40;96.60;;;;;;4161088;28;20107;-71
2023/05/31 08:42:52;;;;;;;6.80;3.35;;;23.50;98.20;;;;;;4159575;28;20026;-70
2023/05/31 08:44:53;;;;;;;5.40;2.83;;;23.60;98.80;;;;;;4156962;28;20031;-71
2023/05/31 08:47:15;;;;;;;9.45;3.67;;;23.70;98.70;;;;;;4158834;28;20057;-72
2023/05/31 08:49:17;;;;;;;8.48;3.58;;;23.60;96.80;;;;;;4160808;28;20034;-72
2023/05/31 08:51:18;;;;;;;7.00;3.03;;;23.60;97.80;;;;;;4156788;28;20040;-70
2023/05/31 08:53:20;;;;;;;5.07;2.80;;;23.70;97.70;;;;;;4159843;28;20021;-71
2023/05/31 08:55:23;;;;;;;7.15;3.80;;;23.90;97.20;;;;;;4159003;28;20022;-72
2023/05/31 08:57:23;;;;;;;7.90;3.65;;;23.40;95.60;;;;;;4160686;28;20056;-71
2023/05/31 08:59:24;;;;;;;10.10;3.10;;;23.20;96.10;;;;;;4158329;28;20029;-71
2023/05/31 09:01:27;;;;;;;6.85;3.10;;;23.40;98.70;;;;;;4158701;28;20551;-71
2023/05/31 09:03:28;;;;;;;10.63;3.72;;;23.50;98.40;;;;;;4189318;28;20056;-72
2023/05/31 09:05:28;;;;;;;9.95;3.55;;;23.50;96.20;;;;;;4157070;28;20613;-71
2023/05/31 09:07:29;;;;;;;9.45;3.90;;;23.40;96.10;;;;;;4155502;28;20040;-71
2023/05/31 09:09:30;;;;;;;5.22;2.80;;;23.30;95.60;;;;;;4157724;28;20033;-71
2023/05/31 09:11:30;;;;;;;7.15;3.53;;;23.30;96.60;;;;;;4187963;28;20068;-71
2023/05/31 09:13:31;;;;;;;8.02;3.53;;;23.30;96.00;;;;;;4155790;28;20036;-71
2023/05/31 09:15:32;;;;;;;6.80;2.83;;;23.30;95.70;;;;;;4158097;28;20053;-71
2023/05/31 09:17:32;;;;;;;4.43;2.40;;;23.60;98.60;;;;;;4159184;28;20036;-71
2023/05/31 09:19:33;;;;;;;5.47;3.00;;;23.70;97.00;;;;;;4160152;28;20472;-71
2023/05/31 09:21:41;;;;;;;10.32;3.30;;;23.70;96.10;;;;;;4158944;28;20041;-72
2023/05/31 09:23:59;;;;;;;9.70;2.75;;;23.60;94.40;;;;;;4154565;28;20033;-71
2023/05/31 09:26:00;;;;;;;4.82;2.28;;;23.70;95.90;;;;;;4156203;28;20066;-71
2023/05/31 09:28:00;;;;;;;5.20;2.15;;;23.80;97.00;;;;;;4159243;28;20484;-71
2023/05/31 09:30:11;;;;;;;6.82;2.78;;;23.90;98.00;;;;;;4153682;28;20029;-71
2023/05/31 09:32:11;;;;;;;7.72;2.90;;;24.10;96.80;;;;;;4158576;28;20037;-72
2023/05/31 09:34:31;;;;;;;5.50;2.45;;;24.10;95.90;;;;;;4158006;28;20136;-71
2023/05/31 09:36:32;;;;;;;13.90;3.97;;;24.20;95.60;;;;;;4155921;28;20060;-71
2023/05/31 09:38:34;;;;;;;5.72;3.20;;;24.00;94.70;;;;;;4158166;28;20481;-72
2023/05/31 09:40:35;;;;;;;8.45;3.53;;;23.90;94.50;;;;;;4156132;28;20060;-72
2023/05/31 09:42:35;;;;;;;3.78;2.20;;;23.90;93.40;;;;;;4157272;28;20033;-71
2023/05/31 09:44:36;;;;;;;4.65;2.35;;;23.70;93.50;;;;;;4156233;28;20116;-71
2023/05/31 09:46:37;;;;;;;4.15;2.53;;;23.80;95.30;;;;;;4159392;28;20037;-71
2023/05/31 09:48:37;;;;;;;3.40;2.25;;;24.00;95.90;;;;;;4159913;28;20112;-70
2023/05/31 09:50:39;;;;;;;6.63;2.25;;;24.10;95.30;;;;;;4158389;28;20500;-71
2023/05/31 09:52:40;;;;;;;4.93;2.38;;;24.30;95.60;;;;;;4159064;28;20049;-71
2023/05/31 09:54:41;;;;;;;5.80;2.67;;;24.40;93.20;;;;;;4158146;28;20032;-71
2023/05/31 09:56:41;;;;;;;9.65;2.88;;;24.40;94.40;;;;;;4155282;28;20108;-71
2023/05/31 09:58:42;;;;;;;6.30;2.63;;;24.50;93.10;;;;;;4155446;28;20044;-71
2023/05/31 10:00:47;;;;;;;3.67;2.10;;;24.50;92.80;;;;;;4158617;28;20519;-70
2023/05/31 10:02:52;;;;;;;5.32;2.30;;;24.70;92.00;;;;;;4143758;28;20049;-71
2023/05/31 10:04:56;;;;;;;4.00;2.08;;;24.60;93.40;;;;;;4154147;28;20026;-70
2023/05/31 10:06:56;;;;;;;6.07;2.22;;;24.70;94.40;;;;;;4156400;28;20040;-70
2023/05/31 10:08:57;;;;;;;5.78;2.30;;;24.80;93.60;;;;;;4159458;28;20113;-71
2023/05/31 10:11:01;;;;;;;5.22;2.10;;;24.90;94.50;;;;;;4158077;28;20091;-71
2023/05/31 10:13:04;;;;;;;7.70;2.42;;;24.90;92.50;;;;;;4159710;28;20034;-71
2023/05/31 10:15:08;;;;;;;5.30;2.20;;;24.80;90.60;;;;;;4159736;28;20517;-72
2023/05/31 10:17:14;;;;;;;4.38;2.08;;;24.90;92.10;;;;;;4155724;28;20507;-71
2023/05/31 10:19:22;;;;;;;5.15;2.10;;;24.70;88.30;;;;;;4157361;28;20033;-71
2023/05/31 10:21:25;;;;;;;4.03;2.10;;;24.70;90.10;;;;;;4158116;28;20392;-69
2023/05/31 10:23:27;;;;;;;6.40;2.47;;;24.80;90.40;;;;;;4160191;28;20500;-70
2023/05/31 10:25:34;;;;;;;4.30;2.42;;;24.80;89.60;;;;;;4156147;28;20072;-70
2023/05/31 10:27:39;;;;;;;6.50;2.45;;;24.70;87.50;;;;;;4158736;28;20041;-71
2023/05/31 10:29:44;;;;;;;5.90;2.10;;;24.60;89.50;;;;;;4159761;28;20064;-71
2023/05/31 10:31:49;;;;;;;6.65;2.28;;;24.60;87.30;;;;;;4158151;28;20042;-71
2023/05/31 10:33:54;;;;;;;6.78;2.35;;;24.30;86.30;;;;;;4169616;28;20044;-71